Time;durP1;ratioP1;P1;durP2;ratioP2;P2;SDS_P1;SDS_P2;PMS_P1;PMS_P2;Temp;Humidity;BMP_temperature;BMP_pressure;BME280_temperature;BME280_humidity;BME280_pressure;Samples;Min_cycle;Max_cycle;Signal;HPM_P1;HPM_P2
2023/12/20 00:00:18;;;;;;;1.70;0.67;;;;;;;7.02;59.23;95436.66;4347388;32;20238;-57
2023/12/20 00:02:46;;;;;;;1.33;1.23;;;;;;;6.92;59.78;95437.44;4349493;32;20207;-57
2023/12/20 00:05:15;;;;;;;0.40;0.40;;;;;;;7.05;59.28;95425.56;4336885;32;20236;-58
2023/12/20 00:07:40;;;;;;;0.97;0.97;;;;;;;6.96;59.75;95417.41;4350511;32;20343;-57
2023/12/20 00:10:07;;;;;;;0.93;0.93;;;;;;;6.98;59.68;95422.41;4333964;32;20341;-58
2023/12/20 00:12:32;;;;;;;0.80;0.80;;;;;;;7.00;59.66;95412.41;4332955;32;20208;-57
2023/12/20 00:14:58;;;;;;;0.73;0.73;;;;;;;6.90;60.05;95408.72;4352637;32;20304;-58
2023/12/20 00:17:23;;;;;;;0.43;0.33;;;;;;;6.95;60.24;95409.75;4344436;32;20229;-57
2023/12/20 00:19:48;;;;;;;0.80;0.80;;;;;;;7.06;60.23;95400.78;4331158;32;20198;-57
2023/12/20 00:22:13;;;;;;;0.90;0.90;;;;;;;7.01;60.15;95400.78;4335132;32;20223;-57
2023/12/20 00:24:39;;;;;;;1.37;0.77;;;;;;;7.12;60.13;95404.97;4335642;32;20249;-57
2023/12/20 00:27:04;;;;;;;0.43;0.43;;;;;;;7.24;59.79;95408.88;4346064;32;20228;-57
2023/12/20 00:29:30;;;;;;;0.60;0.60;;;;;;;7.11;60.60;95401.53;4355109;32;20202;-57
2023/12/20 00:31:55;;;;;;;0.40;0.40;;;;;;;7.22;59.82;95386.47;4342880;32;20259;-57
2023/12/20 00:34:21;;;;;;;0.50;0.50;;;;;;;7.15;59.67;95392.03;4333876;32;20272;-57
2023/12/20 00:36:47;;;;;;;0.67;0.43;;;;;;;7.14;60.61;95387.03;4349662;32;20229;-56
2023/12/20 00:39:12;;;;;;;0.67;0.67;;;;;;;7.03;60.33;95385.50;4336043;32;20228;-57
2023/12/20 00:41:37;;;;;;;0.43;0.43;;;;;;;6.98;59.00;95388.13;4348401;32;20292;-58
2023/12/20 00:44:03;;;;;;;0.50;0.50;;;;;;;7.21;58.68;95376.97;4343604;32;20256;-57
2023/12/20 00:46:28;;;;;;;0.67;0.50;;;;;;;7.25;58.78;95378.03;4350858;32;20251;-56
2023/12/20 00:48:53;;;;;;;0.73;0.53;;;;;;;7.17;58.40;95371.44;4344433;32;20260;-57
2023/12/20 00:51:19;;;;;;;0.50;0.50;;;;;;;7.25;57.61;95367.47;4332353;32;20212;-57
2023/12/20 00:53:44;;;;;;;2.83;0.77;;;;;;;7.15;57.00;95363.00;4324784;32;20204;-57
2023/12/20 00:56:09;;;;;;;0.63;0.47;;;;;;;7.17;56.23;95366.16;4348125;32;20244;-57
2023/12/20 00:58:35;;;;;;;0.10;0.10;;;;;;;7.22;56.35;95354.81;4343801;32;20295;-57
2023/12/20 01:01:00;;;;;;;0.47;0.47;;;;;;;7.21;56.45;95359.31;4348955;32;20189;-57
2023/12/20 01:03:25;;;;;;;0.40;0.40;;;;;;;7.31;56.61;95355.81;4334220;32;20290;-57
2023/12/20 01:05:51;;;;;;;0.50;0.47;;;;;;;7.35;56.74;95366.63;4345375;32;20292;-57
2023/12/20 01:08:16;;;;;;;0.13;0.13;;;;;;;7.42;55.41;95351.28;4335746;32;20302;-57
2023/12/20 01:10:41;;;;;;;0.30;0.30;;;;;;;7.48;55.34;95350.97;4347397;32;20190;-57
2023/12/20 01:13:08;;;;;;;0.60;0.60;;;;;;;7.41;55.83;95350.50;4334060;32;20212;-57
2023/12/20 01:15:34;;;;;;;0.10;0.10;;;;;;;7.33;55.82;95340.50;4330163;32;20194;-57
2023/12/20 01:17:59;;;;;;;0.30;0.30;;;;;;;7.33;55.95;95329.94;4351816;32;20357;-56
2023/12/20 01:20:25;;;;;;;0.70;0.70;;;;;;;7.30;55.93;95335.75;4339858;32;20239;-57
2023/12/20 01:22:50;;;;;;;0.70;0.47;;;;;;;7.32;56.51;95331.00;4343534;32;20255;-57
2023/12/20 01:25:16;;;;;;;0.20;0.20;;;;;;;7.36;56.57;95333.91;4340413;32;20233;-56
2023/12/20 01:27:41;;;;;;;0.30;0.30;;;;;;;7.34;56.63;95328.09;4331389;32;20197;-57
2023/12/20 01:30:08;;;;;;;1.20;0.33;;;;;;;7.27;56.84;95328.41;4348107;32;20228;-58
2023/12/20 01:32:34;;;;;;;0.30;0.30;;;;;;;7.29;57.01;95325.47;4333307;32;20198;-58
2023/12/20 01:34:59;;;;;;;0.63;0.63;;;;;;;7.31;57.57;95318.88;4346945;32;20308;-57
2023/12/20 01:37:25;;;;;;;0.47;0.43;;;;;;;7.35;57.61;95313.84;4333655;32;20280;-57
2023/12/20 01:39:50;;;;;;;0.50;0.50;;;;;;;7.34;57.93;95314.91;4345964;32;20193;-57
2023/12/20 01:42:16;;;;;;;0.27;0.27;;;;;;;7.32;58.13;95322.31;4344061;32;20260;-57
2023/12/20 01:44:41;;;;;;;0.50;0.50;;;;;;;7.22;58.36;95320.53;4343850;32;20217;-57
2023/12/20 01:47:07;;;;;;;0.30;0.30;;;;;;;7.31;59.55;95316.22;4340949;32;20255;-58
2023/12/20 01:49:33;;;;;;;0.40;0.40;;;;;;;7.38;58.39;95319.38;4346888;32;20197;-56
2023/12/20 01:51:58;;;;;;;0.30;0.23;;;;;;;7.32;59.09;95303.84;4348686;32;20337;-57
2023/12/20 01:54:24;;;;;;;0.20;0.20;;;;;;;7.28;59.87;95303.59;4344555;32;20203;-57
2023/12/20 01:56:50;;;;;;;0.20;0.20;;;;;;;7.35;58.37;95282.97;4331265;32;20532;-57
2023/12/20 01:59:17;;;;;;;0.20;0.20;;;;;;;7.41;58.48;95287.16;4336034;32;20247;-57
2023/12/20 02:01:43;;;;;;;0.20;0.20;;;;;;;7.29;58.41;95284.06;4338190;32;20307;-57
2023/12/20 02:04:08;;;;;;;0.27;0.27;;;;;;;7.28;58.52;95293.03;4336636;32;20293;-57
2023/12/20 02:06:34;;;;;;;0.20;0.20;;;;;;;7.29;58.85;95278.78;4333910;32;20215;-57
2023/12/20 02:08:59;;;;;;;0.30;0.30;;;;;;;7.40;58.56;95280.31;4345790;32;20217;-57
2023/12/20 02:11:26;;;;;;;0.40;0.40;;;;;;;7.36;57.91;95270.56;4345036;32;20244;-57
2023/12/20 02:13:51;;;;;;;0.10;0.10;;;;;;;7.47;59.63;95254.41;4352880;32;20215;-57
2023/12/20 02:16:17;;;;;;;0.10;0.10;;;;;;;7.42;58.47;95256.28;4345192;32;20325;-57
2023/12/20 02:18:43;;;;;;;0.33;0.33;;;;;;;7.51;58.54;95250.13;4344529;32;20224;-57
2023/12/20 02:21:09;;;;;;;0.37;0.37;;;;;;;7.50;58.34;95243.28;4347896;32;20323;-56
2023/12/20 02:23:34;;;;;;;0.40;0.40;;;;;;;7.48;58.61;95236.72;4332619;32;20313;-57
2023/12/20 02:26:00;;;;;;;0.50;0.50;;;;;;;7.52;58.74;95243.00;4329115;33;20257;-57
2023/12/20 02:28:25;;;;;;;0.20;0.20;;;;;;;7.51;58.82;95247.50;4345816;32;20185;-57
2023/12/20 02:30:50;;;;;;;0.10;0.10;;;;;;;7.62;59.15;95242.16;4344879;32;20193;-57
2023/12/20 02:33:16;;;;;;;0.00;0.00;;;;;;;7.56;59.76;95250.09;4326796;32;20186;-57
2023/12/20 02:35:41;;;;;;;0.20;0.20;;;;;;;7.73;58.87;95246.28;4348780;32;20261;-57
2023/12/20 02:38:07;;;;;;;0.33;0.33;;;;;;;7.64;59.26;95250.59;4338787;32;20189;-56
2023/12/20 02:40:32;;;;;;;0.30;0.30;;;;;;;7.69;59.45;95242.63;4349108;32;20192;-62
2023/12/20 02:42:59;;;;;;;0.10;0.10;;;;;;;7.75;58.93;95241.50;4342235;32;20197;-58
2023/12/20 02:45:25;;;;;;;0.20;0.20;;;;;;;7.78;59.25;95243.59;4316192;32;20198;-57
2023/12/20 02:47:50;;;;;;;0.47;0.30;;;;;;;7.71;60.51;95224.63;4335028;32;20310;-57
2023/12/20 02:50:15;;;;;;;0.20;0.20;;;;;;;7.79;60.54;95224.03;4338427;32;20306;-57
2023/12/20 02:52:45;;;;;;;0.23;0.23;;;;;;;7.79;60.28;95226.69;4351725;32;20209;-58
2023/12/20 02:55:10;;;;;;;0.30;0.30;;;;;;;7.78;60.74;95228.53;4333077;32;20297;-57
2023/12/20 02:57:36;;;;;;;0.40;0.40;;;;;;;7.73;60.99;95219.88;4346413;32;20305;-57
2023/12/20 03:00:01;;;;;;;0.10;0.10;;;;;;;7.74;61.14;95214.31;4336802;32;20215;-57
2023/12/20 03:02:27;;;;;;;0.10;0.10;;;;;;;7.70;62.15;95210.66;4333117;32;20227;-57
2023/12/20 03:04:52;;;;;;;0.17;0.17;;;;;;;7.71;61.64;95214.06;4332290;32;20317;-54
2023/12/20 03:07:17;;;;;;;0.33;0.33;;;;;;;7.80;61.74;95212.41;4354431;32;20224;-57
2023/12/20 03:09:43;;;;;;;0.10;0.10;;;;;;;7.68;61.74;95223.38;4353082;32;20217;-57
2023/12/20 03:12:08;;;;;;;0.17;0.17;;;;;;;7.62;62.13;95228.94;4355552;32;20184;-57
2023/12/20 03:14:33;;;;;;;0.33;0.10;;;;;;;7.77;62.20;95226.19;4333513;32;20251;-57
2023/12/20 03:16:58;;;;;;;2.43;0.40;;;;;;;7.78;62.39;95227.75;4335003;32;20192;-57
2023/12/20 03:19:24;;;;;;;0.10;0.10;;;;;;;7.76;63.30;95224.59;4348043;32;20212;-57
2023/12/20 03:21:49;;;;;;;3.70;0.57;;;;;;;7.73;64.01;95230.44;4331135;32;20201;-57
2023/12/20 03:24:15;;;;;;;0.20;0.20;;;;;;;7.79;64.42;95218.75;4342106;32;20194;-57
2023/12/20 03:26:40;;;;;;;2.13;0.20;;;;;;;7.80;64.57;95217.69;4349545;32;20267;-57
2023/12/20 03:29:07;;;;;;;0.00;0.00;;;;;;;7.78;65.22;95225.09;4346552;32;20213;-57
2023/12/20 03:31:34;;;;;;;0.10;0.10;;;;;;;7.80;65.71;95230.91;4346239;32;20201;-59
2023/12/20 03:33:59;;;;;;;0.00;0.00;;;;;;;7.76;66.63;95227.22;4343165;32;20383;-57
2023/12/20 03:36:25;;;;;;;0.33;0.30;;;;;;;7.71;67.43;95232.56;4345772;32;20281;-57
2023/12/20 03:38:50;;;;;;;0.20;0.20;;;;;;;7.77;68.23;95228.81;4351181;32;20186;-57
2023/12/20 03:41:15;;;;;;;0.10;0.10;;;;;;;7.78;68.14;95239.09;4333145;32;20201;-57
2023/12/20 03:43:41;;;;;;;0.10;0.10;;;;;;;7.77;68.53;95240.16;4336721;32;20208;-57
2023/12/20 03:46:08;;;;;;;0.20;0.20;;;;;;;7.73;69.19;95248.91;4335058;32;20185;-57
2023/12/20 03:48:33;;;;;;;0.20;0.20;;;;;;;7.77;70.55;95253.37;4339833;32;20213;-58
2023/12/20 03:50:59;;;;;;;0.07;0.07;;;;;;;7.66;71.78;95256.38;4344069;32;20336;-57
2023/12/20 03:53:24;;;;;;;0.10;0.10;;;;;;;7.61;72.01;95259.06;4337253;32;20197;-57
2023/12/20 03:55:54;;;;;;;0.10;0.10;;;;;;;7.59;73.51;95262.75;4347348;32;20209;-57
2023/12/20 03:58:20;;;;;;;0.30;0.30;;;;;;;7.59;73.80;95268.03;4349129;32;20189;-57
2023/12/20 04:00:45;;;;;;;0.20;0.20;;;;;;;7.59;74.70;95262.75;4331386;32;20313;-57
2023/12/20 04:03:13;;;;;;;0.20;0.20;;;;;;;7.65;75.30;95262.72;4347992;32;20331;-57
2023/12/20 04:05:40;;;;;;;0.10;0.10;;;;;;;7.63;76.24;95264.84;4347391;32;20193;-57
2023/12/20 04:08:05;;;;;;;0.30;0.20;;;;;;;7.57;77.92;95275.44;4331252;32;20304;-57
2023/12/20 04:10:31;;;;;;;0.00;0.00;;;;;;;7.48;79.08;95266.50;4333475;32;20297;-57
2023/12/20 04:12:56;;;;;;;0.00;0.00;;;;;;;7.54;79.08;95273.34;4350922;32;20246;-57
2023/12/20 04:15:21;;;;;;;0.30;0.30;;;;;;;7.64;79.47;95276.97;4334809;32;22894;-56
2023/12/20 04:17:47;;;;;;;0.17;0.17;;;;;;;7.54;80.35;95277.81;4342442;32;20264;-57
2023/12/20 04:20:12;;;;;;;0.10;0.10;;;;;;;7.47;81.29;95280.00;4332025;32;20193;-56
2023/12/20 04:22:37;;;;;;;0.10;0.10;;;;;;;7.47;81.81;95282.66;4330686;32;20220;-57
2023/12/20 04:25:03;;;;;;;0.00;0.00;;;;;;;7.49;81.93;95276.00;4344170;32;20220;-57
2023/12/20 04:27:28;;;;;;;0.27;0.27;;;;;;;7.44;82.92;95276.06;4346366;32;20265;-57
2023/12/20 04:29:54;;;;;;;0.20;0.20;;;;;;;7.35;83.28;95285.59;4330171;32;20197;-57
2023/12/20 04:32:19;;;;;;;0.07;0.07;;;;;;;7.34;83.79;95270.84;4345134;32;20201;-57
2023/12/20 04:34:44;;;;;;;0.23;0.23;;;;;;;7.36;84.28;95267.94;4344132;32;20198;-57
2023/12/20 04:37:12;;;;;;;0.40;0.40;;;;;;;7.30;84.72;95269.78;4330591;32;20210;-57
2023/12/20 04:39:37;;;;;;;0.00;0.00;;;;;;;7.26;85.60;95273.28;4334470;32;20237;-57
2023/12/20 04:42:03;;;;;;;0.10;0.10;;;;;;;7.16;85.80;95268.84;4333978;32;20320;-59
2023/12/20 04:44:28;;;;;;;0.10;0.10;;;;;;;7.13;86.30;95279.94;4333666;32;20209;-58
2023/12/20 04:46:54;;;;;;;0.00;0.00;;;;;;;7.19;86.17;95278.84;4333441;32;20201;-57
2023/12/20 04:49:19;;;;;;;0.10;0.10;;;;;;;7.06;87.12;95287.38;4341520;32;20205;-57
2023/12/20 04:51:44;;;;;;;0.20;0.20;;;;;;;7.12;87.27;95281.78;4346283;32;20189;-57
2023/12/20 04:54:10;;;;;;;0.33;0.33;;;;;;;7.03;88.06;95290.53;4335642;32;20223;-57
2023/12/20 04:56:35;;;;;;;0.07;0.07;;;;;;;7.09;88.22;95300.00;4325867;32;20205;-57
2023/12/20 04:59:01;;;;;;;0.60;0.40;;;;;;;6.97;88.99;95304.81;4346177;32;20305;-57
2023/12/20 05:01:27;;;;;;;0.30;0.30;;;;;;;7.09;89.28;95310.53;4329848;32;20240;-58
2023/12/20 05:03:53;;;;;;;0.30;0.30;;;;;;;7.05;89.89;95305.03;4332233;32;20288;-57
2023/12/20 05:06:18;;;;;;;0.40;0.40;;;;;;;6.98;92.09;95315.09;4346960;32;20335;-57
2023/12/20 05:08:45;;;;;;;0.30;0.30;;;;;;;6.94;95.23;95313.25;4349401;32;20209;-57
2023/12/20 05:11:10;;;;;;;0.93;0.30;;;;;;;6.94;100.00;95323.81;4349424;32;20272;-57
2023/12/20 05:13:35;;;;;;;0.47;0.47;;;;;;;6.77;100.00;95324.91;4348867;32;20298;-57
2023/12/20 05:16:01;;;;;;;0.20;0.20;;;;;;;6.82;100.00;95327.53;4336887;32;20236;-57
2023/12/20 05:18:26;;;;;;;0.80;0.80;;;;;;;6.61;100.00;95328.66;4331502;32;20250;-57
2023/12/20 05:20:51;;;;;;;0.50;0.50;;;;;;;6.66;100.00;95318.09;4334287;32;20217;-57
2023/12/20 05:23:17;;;;;;;0.47;0.47;;;;;;;6.64;100.00;95328.13;4326921;32;20253;-57
2023/12/20 05:25:42;;;;;;;0.23;0.23;;;;;;;6.71;100.00;95325.97;4347618;32;20197;-58
2023/12/20 05:28:07;;;;;;;0.30;0.30;;;;;;;6.73;100.00;95328.34;4325921;32;20274;-57
2023/12/20 05:30:33;;;;;;;0.10;0.10;;;;;;;6.59;100.00;95330.78;4331279;32;20209;-58
2023/12/20 05:32:58;;;;;;;0.83;0.83;;;;;;;6.51;100.00;95334.72;4332698;32;20249;-57
2023/12/20 05:35:23;;;;;;;1.37;1.00;;;;;;;6.43;100.00;95347.69;4338043;32;20188;-57
2023/12/20 05:37:50;;;;;;;0.40;0.40;;;;;;;6.33;100.00;95351.09;4346921;32;20243;-57
2023/12/20 05:40:15;;;;;;;0.70;0.70;;;;;;;6.39;100.00;95338.72;4347508;32;20185;-56
2023/12/20 05:42:40;;;;;;;5.33;0.43;;;;;;;6.43;100.00;95355.59;4331117;32;20312;-57
2023/12/20 05:45:07;;;;;;;1.33;0.70;;;;;;;6.36;100.00;95355.84;4308178;33;20297;-56
2023/12/20 05:47:32;;;;;;;0.43;0.43;;;;;;;6.27;100.00;95359.25;4319619;32;20212;-57
2023/12/20 05:49:57;;;;;;;0.47;0.47;;;;;;;6.11;100.00;95359.28;4332146;32;20304;-57
2023/12/20 05:52:23;;;;;;;0.63;0.63;;;;;;;6.27;100.00;95373.22;4346530;32;20285;-57
2023/12/20 05:54:53;;;;;;;0.37;0.37;;;;;;;6.19;100.00;95361.41;4334352;32;20207;-57
2023/12/20 05:57:18;;;;;;;0.53;0.53;;;;;;;6.13;100.00;95361.66;4331698;32;20298;-57
2023/12/20 05:59:43;;;;;;;0.50;0.50;;;;;;;6.17;100.00;95373.25;4343422;32;20301;-56
2023/12/20 06:02:08;;;;;;;0.40;0.40;;;;;;;6.16;100.00;95372.44;4343484;32;20201;-57
2023/12/20 06:04:34;;;;;;;2.03;0.93;;;;;;;5.98;100.00;95372.97;4338270;32;20239;-59
2023/12/20 06:06:59;;;;;;;0.20;0.20;;;;;;;6.03;100.00;95380.06;4315536;32;20249;-57
2023/12/20 06:09:26;;;;;;;0.20;0.20;;;;;;;5.87;100.00;95379.25;4332265;32;20209;-56
2023/12/20 06:11:51;;;;;;;0.77;0.73;;;;;;;5.99;100.00;95385.09;4339259;32;20263;-56
2023/12/20 06:14:17;;;;;;;0.30;0.30;;;;;;;5.86;100.00;95385.56;4343694;32;20329;-56
2023/12/20 06:16:42;;;;;;;0.30;0.30;;;;;;;5.76;100.00;95396.87;4350326;32;20192;-57
2023/12/20 06:19:08;;;;;;;0.33;0.33;;;;;;;5.80;100.00;95394.53;4333091;32;20228;-57
2023/12/20 06:21:35;;;;;;;1.07;0.47;;;;;;;5.92;100.00;95391.66;4333943;32;20201;-58
2023/12/20 06:24:01;;;;;;;0.60;0.60;;;;;;;5.81;100.00;95411.91;4348260;32;20205;-58
2023/12/20 06:26:26;;;;;;;0.20;0.20;;;;;;;5.81;100.00;95407.44;4329906;32;20329;-58
2023/12/20 06:28:52;;;;;;;0.10;0.10;;;;;;;5.65;100.00;95412.87;4340652;32;20216;-58
2023/12/20 06:31:17;;;;;;;0.23;0.23;;;;;;;5.62;100.00;95411.56;4347075;32;20240;-58
2023/12/20 06:33:43;;;;;;;0.20;0.20;;;;;;;5.53;100.00;95406.03;4345624;32;20189;-58
2023/12/20 06:36:13;;;;;;;0.20;0.20;;;;;;;5.57;100.00;95410.78;4332170;32;20203;-58
2023/12/20 06:38:38;;;;;;;0.30;0.30;;;;;;;5.60;100.00;95421.59;4337561;32;20281;-59
2023/12/20 06:41:04;;;;;;;0.47;0.47;;;;;;;5.58;100.00;95420.25;4336266;32;20332;-59
2023/12/20 06:43:30;;;;;;;0.40;0.40;;;;;;;5.52;100.00;95422.06;4332231;32;20228;-58
2023/12/20 06:45:55;;;;;;;0.27;0.27;;;;;;;5.61;100.00;95430.28;4336576;32;20239;-58
2023/12/20 06:48:20;;;;;;;0.20;0.20;;;;;;;5.51;100.00;95431.03;4352223;32;20301;-58
2023/12/20 06:50:46;;;;;;;0.30;0.30;;;;;;;5.42;100.00;95438.59;4338868;32;20197;-59
2023/12/20 06:53:11;;;;;;;0.00;0.00;;;;;;;5.37;100.00;95441.25;4356888;32;20184;-58
2023/12/20 06:55:37;;;;;;;0.37;0.37;;;;;;;5.53;100.00;95442.87;4350615;32;20197;-58
2023/12/20 06:58:03;;;;;;;0.60;0.60;;;;;;;5.53;100.00;95437.59;4337333;32;20216;-60
2023/12/20 07:00:28;;;;;;;0.20;0.20;;;;;;;5.49;100.00;95436.53;4339420;32;20311;-58
2023/12/20 07:02:54;;;;;;;0.20;0.20;;;;;;;5.50;100.00;95450.47;4331990;32;20205;-58
2023/12/20 07:05:19;;;;;;;0.20;0.20;;;;;;;5.40;100.00;95450.47;4338283;32;20212;-59
2023/12/20 07:07:46;;;;;;;0.20;0.20;;;;;;;5.40;100.00;95448.59;4331183;32;20193;-58
2023/12/20 07:10:12;;;;;;;0.33;0.33;;;;;;;5.29;100.00;95461.97;4340892;32;20203;-58
2023/12/20 07:12:37;;;;;;;0.20;0.20;;;;;;;5.33;100.00;95458.56;4333831;32;20297;-58
2023/12/20 07:15:03;;;;;;;0.20;0.20;;;;;;;5.23;100.00;95463.78;4343726;32;20209;-60
2023/12/20 07:17:28;;;;;;;0.87;0.87;;;;;;;5.24;100.00;95464.56;4350430;32;20193;-58
2023/12/20 07:19:54;;;;;;;1.47;1.37;;;;;;;5.24;100.00;95481.13;4345312;32;20200;-58
2023/12/20 07:22:19;;;;;;;0.33;0.33;;;;;;;5.13;100.00;95480.31;4329300;32;20224;-58
2023/12/20 07:24:45;;;;;;;0.10;0.10;;;;;;;5.31;100.00;95480.91;4331288;32;20190;-58
2023/12/20 07:27:11;;;;;;;0.43;0.43;;;;;;;5.30;100.00;95480.13;4310148;32;20245;-58
2023/12/20 07:29:36;;;;;;;0.00;0.00;;;;;;;5.22;100.00;95488.47;4348043;32;20286;-59
2023/12/20 07:32:01;;;;;;;1.50;1.40;;;;;;;5.20;100.00;95495.06;4347707;32;20194;-63
2023/12/20 07:34:27;;;;;;;0.60;0.60;;;;;;;6.65;100.00;95485.19;4335218;32;20200;-63
2023/12/20 07:36:52;;;;;;;0.70;0.70;;;;;;;8.53;100.00;95498.53;4331843;32;21439;-63
2023/12/20 07:39:18;;;;;;;0.37;0.30;;;;;;;9.60;100.00;95484.31;4329462;32;20240;-63
2023/12/20 07:41:44;;;;;;;0.10;0.10;;;;;;;10.55;100.00;95497.41;4331774;32;20257;-63
2023/12/20 07:44:09;;;;;;;0.10;0.10;;;;;;;10.94;100.00;95498.91;4339738;32;20281;-63
2023/12/20 07:46:34;;;;;;;0.30;0.30;;;;;;;11.52;95.45;95493.88;4331125;32;20220;-63
2023/12/20 07:49:00;;;;;;;1.93;0.37;;;;;;;11.82;95.31;95489.13;4337262;32;20181;-63
2023/12/20 07:51:25;;;;;;;0.33;0.30;;;;;;;12.07;90.90;95491.22;4346127;32;20201;-63
2023/12/20 07:53:51;;;;;;;2.67;2.47;;;;;;;11.97;87.47;95497.56;4347868;32;20270;-63
2023/12/20 07:56:18;;;;;;;1.17;1.07;;;;;;;11.53;84.58;95500.00;4329690;32;20189;-59
2023/12/20 07:58:44;;;;;;;0.63;0.63;;;;;;;8.62;93.03;95509.31;4331608;32;20202;-60
2023/12/20 08:01:11;;;;;;;0.50;0.30;;;;;;;7.42;100.00;95509.63;4327556;32;20252;-58
2023/12/20 08:03:37;;;;;;;0.30;0.30;;;;;;;6.83;100.00;95518.97;4323590;32;20251;-61
2023/12/20 08:06:02;;;;;;;0.10;0.10;;;;;;;6.22;100.00;95517.31;4305908;32;20362;-60
2023/12/20 08:08:28;;;;;;;0.30;0.30;;;;;;;5.84;100.00;95514.81;4327858;33;20259;-59
2023/12/20 08:10:53;;;;;;;0.30;0.30;;;;;;;5.75;100.00;95520.84;4334205;32;20244;-60
2023/12/20 08:13:18;;;;;;;0.30;0.20;;;;;;;5.73;100.00;95526.34;4331053;32;20277;-59
2023/12/20 08:15:44;;;;;;;0.33;0.33;;;;;;;5.78;100.00;95533.50;4348853;32;20232;-59
2023/12/20 08:18:09;;;;;;;0.17;0.17;;;;;;;5.88;100.00;95522.97;4332545;32;20197;-59
2023/12/20 08:20:35;;;;;;;0.43;0.37;;;;;;;5.70;100.00;95526.06;4344653;32;20273;-61
2023/12/20 08:23:00;;;;;;;0.30;0.30;;;;;;;5.73;100.00;95530.81;4333616;32;20219;-60
2023/12/20 08:25:26;;;;;;;0.27;0.27;;;;;;;5.76;100.00;95535.59;4317474;32;20245;-59
2023/12/20 08:27:51;;;;;;;0.20;0.20;;;;;;;5.71;100.00;95522.41;4335615;32;20275;-59
2023/12/20 08:30:21;;;;;;;0.57;0.40;;;;;;;5.84;100.00;95524.53;4329604;32;20193;-60
2023/12/20 08:32:50;;;;;;;0.10;0.10;;;;;;;5.66;100.00;95527.63;4345430;32;20227;-60
2023/12/20 08:35:16;;;;;;;0.40;0.30;;;;;;;5.73;100.00;95530.81;4343231;32;20354;-61
2023/12/20 08:37:41;;;;;;;0.20;0.20;;;;;;;5.83;100.00;95525.59;4344311;32;20282;-60
2023/12/20 08:40:07;;;;;;;0.10;0.10;;;;;;;5.83;100.00;95526.37;4323137;32;20201;-59
2023/12/20 08:42:32;;;;;;;0.20;0.20;;;;;;;5.81;100.00;95528.50;4335578;32;20197;-60
2023/12/20 08:45:01;;;;;;;0.33;0.33;;;;;;;5.81;100.00;95532.97;4344126;32;20243;-59
2023/12/20 08:47:26;;;;;;;0.07;0.07;;;;;;;5.82;100.00;95519.53;4334129;32;20219;-59
2023/12/20 08:49:56;;;;;;;0.00;0.00;;;;;;;5.65;100.00;95526.03;4331419;32;20286;-59
2023/12/20 08:52:22;;;;;;;0.00;0.00;;;;;;;5.81;100.00;95530.34;4339953;32;20201;-62
2023/12/20 08:54:48;;;;;;;2.70;0.53;;;;;;;5.82;100.00;95529.25;4316596;32;20299;-63
2023/12/20 08:57:15;;;;;;;1.20;0.30;;;;;;;11.52;100.00;95506.38;4344457;32;20293;-63
2023/12/20 08:59:40;;;;;;;0.10;0.10;;;;;;;13.02;97.79;95513.31;4344941;32;20206;-65
2023/12/20 09:02:05;;;;;;;0.20;0.20;;;;;;;14.05;85.14;95510.38;4333280;32;20201;-65
2023/12/20 09:04:31;;;;;;;0.03;0.03;;;;;;;14.95;75.60;95522.09;4346594;32;20236;-66
2023/12/20 09:06:57;;;;;;;0.10;0.10;;;;;;;15.06;73.13;95518.00;4317273;32;20267;-66
2023/12/20 09:09:23;;;;;;;0.20;0.20;;;;;;;15.01;68.36;95525.38;4331648;32;20201;-66
2023/12/20 09:11:51;;;;;;;0.20;0.20;;;;;;;15.15;68.39;95525.22;4341697;32;20252;-66
2023/12/20 09:14:16;;;;;;;0.10;0.10;;;;;;;15.30;58.90;95524.72;4345924;32;20299;-65
2023/12/20 09:16:41;;;;;;;0.10;0.10;;;;;;;15.17;59.00;95523.03;4336823;32;20189;-62
2023/12/20 09:19:07;;;;;;;0.33;0.33;;;;;;;11.78;64.80;95530.66;4344525;32;20209;-60
2023/12/20 09:21:32;;;;;;;0.10;0.10;;;;;;;9.20;77.68;95533.16;4337459;32;20249;-59
2023/12/20 09:23:58;;;;;;;0.13;0.13;;;;;;;8.31;82.35;95543.06;4348344;32;20227;-60
2023/12/20 09:26:25;;;;;;;1.30;0.27;;;;;;;7.50;88.56;95523.06;4328700;32;20284;-59
2023/12/20 09:28:50;;;;;;;0.20;0.20;;;;;;;7.35;90.78;95523.09;4330110;32;20208;-59
2023/12/20 09:31:16;;;;;;;0.10;0.10;;;;;;;7.03;92.69;95527.91;4342062;32;20261;-59
2023/12/20 09:33:41;;;;;;;0.10;0.10;;;;;;;6.86;93.25;95525.53;4332297;32;20220;-59
2023/12/20 09:36:07;;;;;;;0.10;0.10;;;;;;;6.47;100.00;95530.50;4326868;32;20207;-60
2023/12/20 09:38:32;;;;;;;0.20;0.20;;;;;;;6.32;100.00;95543.66;4328970;32;20194;-60
2023/12/20 09:41:02;;;;;;;0.27;0.10;;;;;;;6.27;100.00;95539.19;4347171;32;20866;-59
2023/12/20 09:43:29;;;;;;;0.00;0.00;;;;;;;6.17;100.00;95532.06;4329366;32;20205;-59
2023/12/20 09:46:00;;;;;;;0.13;0.13;;;;;;;6.16;100.00;95546.28;4328837;32;20285;-58
2023/12/20 09:48:26;;;;;;;0.47;0.47;;;;;;;5.80;100.00;95541.91;4347597;32;20319;-59
2023/12/20 09:50:51;;;;;;;0.33;0.33;;;;;;;5.99;100.00;95543.06;4328204;32;20286;-59
2023/12/20 09:53:19;;;;;;;0.10;0.10;;;;;;;6.05;100.00;95528.06;4336188;32;20289;-59
2023/12/20 09:55:44;;;;;;;0.20;0.20;;;;;;;5.84;100.00;95533.22;4325271;32;20238;-59
2023/12/20 09:58:10;;;;;;;0.33;0.33;;;;;;;5.84;100.00;95521.91;4345230;32;20309;-59
2023/12/20 10:00:35;;;;;;;0.30;0.30;;;;;;;5.80;100.00;95520.88;4345491;32;20228;-59
2023/12/20 10:03:01;;;;;;;0.30;0.30;;;;;;;5.84;100.00;95521.91;4337666;32;20207;-59
2023/12/20 10:05:32;;;;;;;0.47;0.47;;;;;;;5.91;100.00;95516.44;4338378;32;20338;-59
2023/12/20 10:08:07;;;;;;;0.30;0.23;;;;;;;6.14;100.00;95519.41;4345637;32;20225;-59
2023/12/20 10:10:33;;;;;;;0.17;0.17;;;;;;;6.00;100.00;95514.91;4326440;33;20299;-59
2023/12/20 10:13:05;;;;;;;0.53;0.50;;;;;;;6.16;100.00;95500.72;4321587;33;20329;-59
2023/12/20 10:15:32;;;;;;;0.10;0.10;;;;;;;6.34;100.00;95492.31;4315648;33;20184;-60
2023/12/20 10:17:58;;;;;;;0.13;0.13;;;;;;;6.29;100.00;95499.41;4345941;32;20328;-59
2023/12/20 10:20:25;;;;;;;0.23;0.23;;;;;;;6.42;100.00;95507.59;4327453;32;20428;-59
2023/12/20 10:22:53;;;;;;;0.43;0.43;;;;;;;6.29;100.00;95507.31;4332457;32;20389;-60
2023/12/20 10:25:20;;;;;;;0.10;0.10;;;;;;;6.13;100.00;95507.28;4341114;32;20325;-59
2023/12/20 10:31:07;;;;;;;0.20;0.20;;;;;;;6.29;100.00;95494.94;4339787;32;20299;-59
2023/12/20 10:33:32;;;;;;;0.37;0.37;;;;;;;6.41;100.00;95497.34;4344059;32;20360;-59
2023/12/20 10:35:57;;;;;;;0.53;0.53;;;;;;;6.32;100.00;95486.50;4334400;32;20240;-59
2023/12/20 10:38:24;;;;;;;0.20;0.20;;;;;;;6.45;100.00;95506.28;4345992;32;20314;-59
2023/12/20 10:40:56;;;;;;;0.43;0.43;;;;;;;6.12;100.00;95503.06;4335347;32;20260;-60
2023/12/20 10:43:23;;;;;;;0.40;0.40;;;;;;;6.22;100.00;95501.53;4347429;32;20289;-59
2023/12/20 10:45:48;;;;;;;0.30;0.30;;;;;;;6.35;100.00;95495.72;4341513;32;20277;-60
2023/12/20 10:48:15;;;;;;;0.30;0.30;;;;;;;6.31;100.00;95497.31;4346134;32;20289;-59
2023/12/20 10:50:41;;;;;;;0.37;0.37;;;;;;;6.31;100.00;95495.47;4328511;32;20189;-59
2023/12/20 10:53:07;;;;;;;0.20;0.20;;;;;;;6.30;100.00;95485.97;4343987;32;20290;-60
2023/12/20 10:55:33;;;;;;;0.23;0.20;;;;;;;6.27;100.00;95493.59;4350675;32;20285;-60
2023/12/20 10:58:04;;;;;;;0.10;0.10;;;;;;;6.42;100.00;95483.09;4350432;32;20181;-59
2023/12/20 11:00:31;;;;;;;0.30;0.30;;;;;;;6.38;100.00;95480.19;4334957;32;20212;-60
2023/12/20 11:03:02;;;;;;;0.17;0.17;;;;;;;6.55;100.00;95482.56;4328474;32;20281;-60
2023/12/20 11:05:47;;;;;;;0.07;0.07;;;;;;;6.28;100.00;95482.81;4348897;32;20297;-59
2023/12/20 11:08:19;;;;;;;0.17;0.17;;;;;;;6.38;100.00;95489.94;4345618;32;20320;-59
2023/12/20 11:10:56;;;;;;;0.00;0.00;;;;;;;6.38;100.00;95489.94;4324751;32;20373;-59
2023/12/20 11:13:44;;;;;;;0.10;0.10;;;;;;;6.59;100.00;95478.38;4343676;32;20361;-59
2023/12/20 11:16:09;;;;;;;0.23;0.23;;;;;;;6.61;100.00;95478.09;4327429;32;20337;-60
2023/12/20 11:18:35;;;;;;;0.33;0.33;;;;;;;6.69;100.00;95480.97;4340211;32;20297;-60
2023/12/20 11:21:03;;;;;;;0.10;0.10;;;;;;;6.64;100.00;95482.84;4342248;32;20193;-59
2023/12/20 11:23:33;;;;;;;0.13;0.13;;;;;;;6.51;100.00;95481.50;4348488;32;20211;-60
2023/12/20 11:25:58;;;;;;;0.00;0.00;;;;;;;6.44;100.00;95478.38;4336771;32;20282;-60
2023/12/20 11:28:26;;;;;;;0.17;0.17;;;;;;;6.54;100.00;95467.81;4345179;32;20403;-60
2023/12/20 11:30:54;;;;;;;0.40;0.40;;;;;;;6.65;100.00;95461.47;4343302;32;20229;-59
2023/12/20 11:33:29;;;;;;;0.50;0.50;;;;;;;6.62;100.00;95464.66;4347785;32;20320;-60